Time;durP1;ratioP1;P1;durP2;ratioP2;P2;SDS_P1;SDS_P2;PMS_P1;PMS_P2;Temp;Humidity;BMP_temperature;BMP_pressure;BME280_temperature;BME280_humidity;BME280_pressure;Samples;Min_cycle;Max_cycle;Signal;HPM_P1;HPM_P2
2023/04/24 00:00:25;;;;;;;;;;;;;;;12.84;65.44;98828.59;1083382;54;19953;-79
2023/04/24 00:01:29;;;;;;;;;;;;;;;12.92;64.70;98828.47;1083536;54;19954;-78
2023/04/24 00:02:31;;;;;;;;;;;;;;;12.82;65.22;98833.31;1085053;54;19950;-77
2023/04/24 00:03:35;;;;;;;;;;;;;;;12.87;65.17;98827.38;1084800;47;19950;-77
2023/04/24 00:04:40;;;;;;;;;;;;;;;12.88;65.05;98823.66;1085078;54;19950;-78
2023/04/24 00:05:43;;;;;;;;;;;;;;;12.84;65.18;98836.63;1084569;54;19947;-79
2023/04/24 00:06:49;;;;;;;;;;;;;;;12.80;65.84;98822.75;1084642;39;20508;-77
2023/04/24 00:07:54;;;;;;;;;;;;;;;12.89;65.27;98826.16;1083444;54;19946;-79
2023/04/24 00:08:55;;;;;;;;;;;;;;;12.82;65.62;98825.25;1083565;54;19953;-78
2023/04/24 00:09:59;;;;;;;;;;;;;;;12.86;65.44;98823.84;1083528;54;19986;-78
2023/04/24 00:11:00;;;;;;;;;;;;;;;12.93;65.05;98827.44;1083721;39;20467;-77
2023/04/24 00:12:05;;;;;;;;;;;;;;;12.95;65.02;98821.88;1083418;54;19946;-77
2023/04/24 00:13:06;;;;;;;;;;;;;;;12.95;65.03;98822.69;1083488;54;19958;-77
2023/04/24 00:14:09;;;;;;;;;;;;;;;12.98;64.72;98824.19;1083406;54;20346;-80
2023/04/24 00:15:11;;;;;;;;;;;;;;;12.98;64.70;98817.97;1085913;31;20398;-78
2023/04/24 00:16:14;;;;;;;;;;;;;;;12.95;65.10;98821.88;1084002;46;19985;-77
2023/04/24 00:17:16;;;;;;;;;;;;;;;12.91;65.54;98821.44;1083161;54;19969;-77
2023/04/24 00:18:20;;;;;;;;;;;;;;;13.04;64.62;98815.38;1083328;54;19950;-78
2023/04/24 00:19:22;;;;;;;;;;;;;;;12.95;65.24;98817.34;1083922;54;19954;-78
2023/04/24 00:20:39;;;;;;;;;;;;;;;12.87;65.21;98817.44;1085029;46;20003;-77
2023/04/24 00:21:43;;;;;;;;;;;;;;;12.90;64.87;98803.69;1084106;54;19951;-78
2023/04/24 00:22:49;;;;;;;;;;;;;;;12.85;65.11;98807.94;1084347;54;20015;-79
2023/04/24 00:23:53;;;;;;;;;;;;;;;12.80;65.21;98812.00;1084698;54;20968;-78
2023/04/24 00:24:54;;;;;;;;;;;;;;;12.77;65.91;98808.88;1084916;54;19958;-78
2023/04/24 00:25:58;;;;;;;;;;;;;;;12.82;65.45;98817.22;1085011;54;19950;-80
2023/04/24 00:27:00;;;;;;;;;;;;;;;12.77;65.45;98807.06;1085356;39;20515;-78
2023/04/24 00:28:04;;;;;;;;;;;;;;;12.78;65.81;98814.06;1084916;54;19951;-78
2023/04/24 00:29:05;;;;;;;;;;;;;;;12.76;65.91;98812.59;1084851;54;19950;-78
2023/04/24 00:30:09;;;;;;;;;;;;;;;12.80;65.07;98811.19;1084728;54;19962;-78
2023/04/24 00:31:10;;;;;;;;;;;;;;;12.84;65.40;98817.00;1084767;54;19951;-79
2023/04/24 00:32:15;;;;;;;;;;;;;;;12.84;65.20;98817.84;1085631;39;20164;-78
2023/04/24 00:33:16;;;;;;;;;;;;;;;12.89;65.14;98815.41;1085289;54;19950;-79
2023/04/24 00:34:19;;;;;;;;;;;;;;;12.86;65.13;98815.78;1084577;54;19957;-78
2023/04/24 00:35:21;;;;;;;;;;;;;;;12.85;65.13;98816.00;1085189;46;19954;-78
2023/04/24 00:36:26;;;;;;;;;;;;;;;12.84;65.24;98815.16;1084631;54;19950;-78
2023/04/24 00:37:29;;;;;;;;;;;;;;;12.80;65.36;98820.06;1085028;54;20981;-78
2023/04/24 00:38:41;;;;;;;;;;;;;;;12.84;65.18;98817.84;1084652;54;20010;-78
2023/04/24 00:41:18;;;;;;;;;;;;;;;12.90;65.20;98811.72;1085146;54;20033;-78
2023/04/24 00:42:20;;;;;;;;;;;;;;;12.91;65.18;98813.38;1085218;39;20683;-78
2023/04/24 00:43:24;;;;;;;;;;;;;;;12.94;64.70;98804.94;1084555;54;19993;-78
2023/04/24 00:44:31;;;;;;;;;;;;;;;12.94;64.95;98820.22;1085019;54;19968;-77
2023/04/24 00:45:39;;;;;;;;;;;;;;;12.90;65.01;98813.56;1084851;54;19954;-77
2023/04/24 00:46:43;;;;;;;;;;;;;;;12.91;65.02;98813.38;1085017;54;19957;-78
2023/04/24 00:47:48;;;;;;;;;;;;;;;12.85;65.25;98816.81;1084734;54;19990;-78
2023/04/24 00:48:50;;;;;;;;;;;;;;;12.91;65.33;98807.19;1085005;47;19985;-77
2023/04/24 00:49:54;;;;;;;;;;;;;;;12.79;65.76;98813.06;1084798;54;19951;-78
2023/04/24 00:50:57;;;;;;;;;;;;;;;12.75;65.77;98813.63;1085418;46;19980;-78
2023/04/24 00:52:07;;;;;;;;;;;;;;;12.76;65.68;98816.09;1085077;54;19950;-78
2023/04/24 00:53:08;;;;;;;;;;;;;;;12.74;66.03;98820.00;1085384;54;19962;-78
2023/04/24 00:54:15;;;;;;;;;;;;;;;12.75;66.29;98827.03;1085175;54;19950;-78
2023/04/24 00:55:19;;;;;;;;;;;;;;;12.70;66.50;98832.13;1084690;47;19957;-78
2023/04/24 00:56:24;;;;;;;;;;;;;;;12.69;66.68;98831.31;1085363;46;19951;-78
2023/04/24 00:57:29;;;;;;;;;;;;;;;12.69;66.74;98835.81;1084922;54;19962;-77
2023/04/24 00:58:33;;;;;;;;;;;;;;;12.70;66.58;98832.97;1084652;46;19957;-79
2023/04/24 00:59:40;;;;;;;;;;;;;;;12.69;66.52;98825.94;1084455;54;19981;-78
2023/04/24 01:00:42;;;;;;;;;;;;;;;12.77;66.33;98819.59;1084734;54;19946;-77
2023/04/24 01:01:50;;;;;;;;;;;;;;;12.84;66.08;98812.50;1085817;31;20511;-78
2023/04/24 01:02:53;;;;;;;;;;;;;;;12.84;65.82;98809.81;1084511;54;19985;-78
2023/04/24 01:03:57;;;;;;;;;;;;;;;12.82;66.05;98802.94;1085044;46;19953;-77
2023/04/24 01:04:59;;;;;;;;;;;;;;;12.85;65.94;98808.75;1084909;54;19951;-78
2023/04/24 01:06:09;;;;;;;;;;;;;;;12.83;65.95;98800.09;1084274;54;19950;-79
2023/04/24 01:07:11;;;;;;;;;;;;;;;12.87;65.72;98801.38;1084494;54;19974;-77
2023/04/24 01:08:29;;;;;;;;;;;;;;;12.92;65.62;98804.31;1084266;54;19946;-78
2023/04/24 01:09:34;;;;;;;;;;;;;;;12.79;65.60;98793.44;1084632;46;19957;-78
2023/04/24 01:10:45;;;;;;;;;;;;;;;12.80;65.90;98795.09;1084331;54;19950;-78
2023/04/24 01:11:47;;;;;;;;;;;;;;;12.76;65.98;98799.16;1084915;46;20050;-78
2023/04/24 01:12:58;;;;;;;;;;;;;;;12.66;66.21;98802.16;1084863;54;20535;-77
2023/04/24 01:14:02;;;;;;;;;;;;;;;12.78;66.18;98792.63;1084542;54;19976;-77
2023/04/24 01:15:09;;;;;;;;;;;;;;;12.81;65.65;98794.09;1084963;46;20042;-78
2023/04/24 01:16:24;;;;;;;;;;;;;;;12.84;65.67;98790.19;1084787;54;19951;-78
2023/04/24 01:17:28;;;;;;;;;;;;;;;12.80;66.24;98795.09;1084937;54;19973;-78
2023/04/24 01:18:30;;;;;;;;;;;;;;;12.79;66.50;98796.13;1084329;39;20462;-77
2023/04/24 01:19:33;;;;;;;;;;;;;;;12.72;66.56;98793.38;1083659;54;19985;-78
2023/04/24 01:20:36;;;;;;;;;;;;;;;12.70;66.36;98794.56;1083426;54;19974;-77
2023/04/24 01:21:40;;;;;;;;;;;;;;;12.77;66.33;98796.31;1083636;54;19958;-77
2023/04/24 01:22:44;;;;;;;;;;;;;;;12.80;66.45;98789.75;1083456;54;19947;-77
2023/04/24 01:23:48;;;;;;;;;;;;;;;12.75;66.25;98794.84;1083396;54;20034;-77
2023/04/24 01:24:49;;;;;;;;;;;;;;;12.73;66.62;98810.28;1083965;39;20811;-77
2023/04/24 01:25:53;;;;;;;;;;;;;;;12.79;66.26;98793.44;1084098;54;20014;-81
2023/04/24 01:26:54;;;;;;;;;;;;;;;12.82;65.96;98794.91;1084531;54;19954;-79
2023/04/24 01:27:58;;;;;;;;;;;;;;;12.76;66.45;98793.81;1084934;39;20680;-81
2023/04/24 01:28:59;;;;;;;;;;;;;;;12.72;66.55;98792.53;1084268;54;19973;-79
2023/04/24 01:30:04;;;;;;;;;;;;;;;12.77;66.35;98784.75;1084642;54;19950;-80
2023/04/24 01:31:05;;;;;;;;;;;;;;;12.74;66.34;98787.84;1084985;54;20015;-82
2023/04/24 01:32:09;;;;;;;;;;;;;;;12.76;66.41;98789.28;1085565;39;20250;-79
2023/04/24 01:33:10;;;;;;;;;;;;;;;12.80;66.32;98787.06;1085639;54;19956;-81
2023/04/24 01:34:14;;;;;;;;;;;;;;;12.79;66.35;98785.41;1085721;54;20000;-81
2023/04/24 01:35:15;;;;;;;;;;;;;;;12.80;66.19;98792.41;1085713;54;19946;-81
2023/04/24 01:36:19;;;;;;;;;;;;;;;12.80;65.97;98789.75;1085939;54;19946;-80
2023/04/24 01:37:27;;;;;;;;;;;;;;;12.80;66.50;98789.75;1086702;46;20291;-80
2023/04/24 01:38:43;;;;;;;;;;;;;;;12.80;66.43;98784.38;1087015;39;20491;-81
2023/04/24 01:39:50;;;;;;;;;;;;;;;12.79;66.28;98785.41;1085258;54;19954;-81
2023/04/24 01:41:00;;;;;;;;;;;;;;;12.79;66.36;98772.00;1085483;39;20922;-82
2023/04/24 01:42:03;;;;;;;;;;;;;;;12.77;66.37;98776.69;1085678;54;19951;-81
2023/04/24 01:43:09;;;;;;;;;;;;;;;12.78;66.46;98781.06;1086469;46;19954;-79
2023/04/24 01:44:10;;;;;;;;;;;;;;;12.82;66.30;98782.34;1086526;46;19973;-80
2023/04/24 01:45:14;;;;;;;;;;;;;;;12.77;66.81;98779.38;1085947;54;19950;-79
2023/04/24 01:46:16;;;;;;;;;;;;;;;12.73;66.65;98788.84;1085935;54;19998;-79
2023/04/24 01:47:26;;;;;;;;;;;;;;;12.73;66.58;98783.47;1087320;54;19951;-83
2023/04/24 01:48:27;;;;;;;;;;;;;;;12.74;66.84;98790.50;1088306;46;19947;-80
2023/04/24 01:49:31;;;;;;;;;;;;;;;12.76;66.96;98781.25;1087931;46;19958;-84
2023/04/24 01:50:32;;;;;;;;;;;;;;;12.76;66.64;98786.63;1089111;46;19943;-83
2023/04/24 01:51:37;;;;;;;;;;;;;;;12.74;66.80;98782.47;1087115;54;19942;-81
2023/04/24 01:52:38;;;;;;;;;;;;;;;12.67;66.68;98784.22;1087389;54;19943;-77
2023/04/24 01:53:45;;;;;;;;;;;;;;;12.73;66.63;98781.63;1086928;54;19942;-79
2023/04/24 01:54:46;;;;;;;;;;;;;;;12.72;66.64;98781.81;1089859;39;20335;-78
2023/04/24 01:55:50;;;;;;;;;;;;;;;12.72;67.13;98784.50;1085850;54;19943;-76
2023/04/24 01:56:51;;;;;;;;;;;;;;;12.75;66.89;98778.78;1085438;54;19951;-77
2023/04/24 01:57:57;;;;;;;;;;;;;;;12.70;67.21;98783.84;1086034;46;19970;-77
2023/04/24 01:59:00;;;;;;;;;;;;;;;12.69;66.70;98782.19;1085256;54;19973;-77
2023/04/24 02:00:04;;;;;;;;;;;;;;;12.62;67.29;98779.44;1085092;54;19951;-77
2023/04/24 02:01:06;;;;;;;;;;;;;;;12.68;67.21;98781.38;1085942;54;19966;-78
2023/04/24 02:02:09;;;;;;;;;;;;;;;12.64;67.44;98780.94;1088224;39;20187;-77
2023/04/24 02:03:11;;;;;;;;;;;;;;;12.56;67.42;98778.34;1086189;54;19943;-77
2023/04/24 02:04:15;;;;;;;;;;;;;;;12.55;67.67;98776.69;1085106;54;19998;-77
2023/04/24 02:05:16;;;;;;;;;;;;;;;12.54;67.79;98777.72;1085009;54;20298;-77
2023/04/24 02:06:19;;;;;;;;;;;;;;;12.57;67.67;98774.63;1085110;39;20275;-78
2023/04/24 02:07:21;;;;;;;;;;;;;;;12.55;67.88;98776.69;1085005;54;19978;-78
2023/04/24 02:08:24;;;;;;;;;;;;;;;12.52;67.67;98770.84;1085061;54;19970;-78
2023/04/24 02:09:28;;;;;;;;;;;;;;;12.50;67.82;98770.22;1085203;54;19946;-77
2023/04/24 02:10:32;;;;;;;;;;;;;;;12.50;67.90;98773.72;1084639;54;19969;-77
2023/04/24 02:11:34;;;;;;;;;;;;;;;12.49;67.78;98772.06;1084731;54;19954;-77
2023/04/24 02:12:38;;;;;;;;;;;;;;;12.43;68.10;98770.97;1084653;54;20014;-77
2023/04/24 02:13:39;;;;;;;;;;;;;;;12.47;68.05;98774.09;1084886;54;20014;-77
2023/04/24 02:14:44;;;;;;;;;;;;;;;12.46;67.91;98769.78;1084720;54;19946;-78
2023/04/24 02:15:45;;;;;;;;;;;;;;;12.51;67.81;98761.19;1083078;54;20092;-78
2023/04/24 02:16:49;;;;;;;;;;;;;;;12.56;67.56;98759.59;1083204;54;20086;-77
2023/04/24 02:17:50;;;;;;;;;;;;;;;12.59;67.49;98761.88;1083544;39;20765;-77
2023/04/24 02:18:53;;;;;;;;;;;;;;;12.60;67.35;98760.84;1083128;54;19951;-80
2023/04/24 02:19:54;;;;;;;;;;;;;;;12.60;67.18;98766.22;1083232;54;19973;-78
2023/04/24 02:20:58;;;;;;;;;;;;;;;12.60;67.34;98762.72;1083711;54;20056;-77
2023/04/24 02:21:59;;;;;;;;;;;;;;;12.69;66.75;98763.41;1083258;54;19970;-77
2023/04/24 02:23:03;;;;;;;;;;;;;;;12.68;66.47;98764.44;1082649;54;19946;-77
2023/04/24 02:24:04;;;;;;;;;;;;;;;12.71;66.62;98761.38;1083277;54;19950;-77
2023/04/24 02:25:11;;;;;;;;;;;;;;;12.69;66.49;98763.41;1083424;54;19951;-77
2023/04/24 02:26:12;;;;;;;;;;;;;;;12.68;66.50;98767.13;1083662;47;19977;-76
2023/04/24 02:27:16;;;;;;;;;;;;;;;12.68;66.36;98772.47;1083265;47;20010;-77
2023/04/24 02:28:17;;;;;;;;;;;;;;;12.67;66.31;98773.50;1083650;46;19970;-78
2023/04/24 02:29:20;;;;;;;;;;;;;;;12.72;66.07;98766.53;1083022;54;19946;-78
2023/04/24 02:30:21;;;;;;;;;;;;;;;12.78;65.92;98770.31;1082924;54;19946;-78
2023/04/24 02:31:25;;;;;;;;;;;;;;;12.76;65.75;98765.16;1082627;54;19986;-78
2023/04/24 02:32:26;;;;;;;;;;;;;;;12.78;65.70;98773.84;1083230;54;19974;-79
2023/04/24 02:33:30;;;;;;;;;;;;;;;12.76;65.70;98770.53;1083621;54;19977;-77
2023/04/24 02:34:31;;;;;;;;;;;;;;;12.79;65.68;98774.66;1083459;54;19950;-78
2023/04/24 02:35:35;;;;;;;;;;;;;;;12.78;65.27;98770.31;1083748;54;19951;-78
2023/04/24 02:36:36;;;;;;;;;;;;;;;12.78;65.34;98770.31;1082816;54;19950;-77
2023/04/24 02:37:40;;;;;;;;;;;;;;;12.79;65.53;98770.16;1082695;54;20061;-79
2023/04/24 02:38:41;;;;;;;;;;;;;;;12.75;65.48;98770.72;1083000;54;20446;-81
2023/04/24 02:39:44;;;;;;;;;;;;;;;12.78;65.46;98775.69;1083266;54;19950;-78
2023/04/24 02:40:48;;;;;;;;;;;;;;;12.79;65.33;98777.34;1083563;54;19950;-77
2023/04/24 02:41:52;;;;;;;;;;;;;;;12.85;65.38;98770.41;1084062;54;19977;-77
2023/04/24 02:42:53;;;;;;;;;;;;;;;12.85;65.31;98765.84;1084172;54;19951;-78
2023/04/24 02:43:57;;;;;;;;;;;;;;;12.81;65.28;98780.69;1083930;54;19981;-77
2023/04/24 02:44:58;;;;;;;;;;;;;;;12.80;65.00;98785.19;1084257;54;19950;-78
2023/04/24 02:46:02;;;;;;;;;;;;;;;12.90;64.97;98767.97;1084167;54;19946;-78
2023/04/24 02:47:03;;;;;;;;;;;;;;;12.84;65.44;98768.72;1084130;54;19958;-78
2023/04/24 02:48:07;;;;;;;;;;;;;;;12.83;65.57;98765.25;1084554;54;19966;-77
2023/04/24 02:49:08;;;;;;;;;;;;;;;12.89;65.58;98761.78;1083837;54;19951;-78
2023/04/24 02:50:12;;;;;;;;;;;;;;;12.89;65.15;98761.78;1084328;47;19954;-77
2023/04/24 02:51:13;;;;;;;;;;;;;;;12.84;65.49;98763.38;1084450;54;19950;-77
2023/04/24 02:52:17;;;;;;;;;;;;;;;12.84;65.75;98756.19;1084477;54;19947;-77
2023/04/24 02:53:18;;;;;;;;;;;;;;;12.84;65.50;98758.00;1084665;54;19962;-77
2023/04/24 02:54:22;;;;;;;;;;;;;;;12.82;66.12;98755.53;1084733;54;19943;-77
2023/04/24 02:55:23;;;;;;;;;;;;;;;12.79;66.13;98762.09;1084405;54;19958;-76
2023/04/24 02:56:30;;;;;;;;;;;;;;;12.74;65.90;98752.97;1084808;47;19946;-77
2023/04/24 02:57:32;;;;;;;;;;;;;;;12.77;65.89;98757.94;1084629;54;19953;-77
2023/04/24 02:58:39;;;;;;;;;;;;;;;12.81;65.33;98761.91;1084439;47;19958;-76
2023/04/24 02:59:43;;;;;;;;;;;;;;;12.80;65.44;98760.25;1085015;54;19973;-78
2023/04/24 03:00:53;;;;;;;;;;;;;;;12.79;65.61;98762.09;1085097;54;19989;-77
2023/04/24 03:01:54;;;;;;;;;;;;;;;12.80;65.70;98770.97;1085587;47;19950;-78
2023/04/24 03:02:58;;;;;;;;;;;;;;;12.73;66.06;98773.56;1085022;47;19951;-79
2023/04/24 03:03:59;;;;;;;;;;;;;;;12.63;66.36;98767.69;1085339;54;19954;-77
2023/04/24 03:05:07;;;;;;;;;;;;;;;12.66;66.09;98774.53;1084967;54;20042;-78
2023/04/24 03:06:11;;;;;;;;;;;;;;;12.74;65.82;98769.88;1085156;54;20013;-77
2023/04/24 03:07:15;;;;;;;;;;;;;;;12.69;66.11;98771.47;1084833;54;19947;-79
2023/04/24 03:08:16;;;;;;;;;;;;;;;12.64;66.30;98774.72;1084156;54;19954;-77
2023/04/24 03:09:19;;;;;;;;;;;;;;;12.58;66.56;98770.94;1083513;54;19974;-78
2023/04/24 03:10:22;;;;;;;;;;;;;;;12.59;66.40;98766.41;1084130;47;19947;-76
2023/04/24 03:11:26;;;;;;;;;;;;;;;12.56;66.62;98773.00;1083598;54;19980;-77
2023/04/24 03:12:29;;;;;;;;;;;;;;;12.57;66.72;98769.28;1084321;54;19981;-78
2023/04/24 03:15:42;;;;;;;;;;;;;;;12.51;67.03;98767.34;1084892;54;19950;-77
2023/04/24 03:27:18;;;;;;;;;;;;;;;12.45;67.44;98744.81;1084096;54;20019;-78
2023/04/24 03:28:22;;;;;;;;;;;;;;;12.42;67.84;98752.41;1084331;47;19950;-78
2023/04/24 03:29:29;;;;;;;;;;;;;;;12.51;67.29;98753.94;1084140;54;19950;-78
2023/04/24 03:30:30;;;;;;;;;;;;;;;12.53;67.39;98753.75;1084223;54;19976;-77
2023/04/24 03:31:36;;;;;;;;;;;;;;;12.55;67.20;98749.88;1083850;54;19947;-78
2023/04/24 03:32:39;;;;;;;;;;;;;;;12.42;67.94;98749.72;1083511;39;20563;-78
2023/04/24 03:33:42;;;;;;;;;;;;;;;12.46;67.71;98756.38;1083276;54;19951;-77
2023/04/24 03:34:44;;;;;;;;;;;;;;;12.46;67.83;98751.03;1084490;39;20420;-79
2023/04/24 03:35:48;;;;;;;;;;;;;;;12.43;67.98;98752.22;1083413;54;20561;-78
2023/04/24 03:36:52;;;;;;;;;;;;;;;12.46;67.92;98751.03;1084201;39;20799;-78
2023/04/24 03:37:53;;;;;;;;;;;;;;;12.36;68.44;98753.16;1083372;54;19962;-79
2023/04/24 03:38:57;;;;;;;;;;;;;;;12.45;68.04;98754.72;1083468;54;19975;-78
2023/04/24 03:39:58;;;;;;;;;;;;;;;12.43;68.15;98754.06;1084991;39;20864;-78
2023/04/24 03:41:07;;;;;;;;;;;;;;;12.41;68.20;98756.09;1084667;39;20765;-79
2023/04/24 03:42:09;;;;;;;;;;;;;;;12.33;68.45;98755.19;1083918;54;19946;-78
2023/04/24 03:43:12;;;;;;;;;;;;;;;12.32;68.82;98756.22;1083880;54;20562;-78
2023/04/24 03:44:16;;;;;;;;;;;;;;;12.41;68.33;98758.78;1083548;54;19946;-77
2023/04/24 03:45:20;;;;;;;;;;;;;;;12.44;68.23;98758.41;1083701;54;19977;-77
2023/04/24 03:46:21;;;;;;;;;;;;;;;12.48;68.04;98760.53;1083648;54;19951;-77
2023/04/24 03:47:25;;;;;;;;;;;;;;;12.48;68.09;98749.81;1084219;54;20447;-80
2023/04/24 03:48:26;;;;;;;;;;;;;;;12.47;68.53;98760.69;1084580;54;19950;-79
2023/04/24 03:49:31;;;;;;;;;;;;;;;12.46;68.41;98756.38;1084566;54;19971;-78
2023/04/24 03:50:32;;;;;;;;;;;;;;;12.37;68.85;98761.00;1087620;47;19942;-80
2023/04/24 03:51:42;;;;;;;;;;;;;;;12.36;69.40;98761.22;1087812;47;19939;-83
2023/04/24 03:52:43;;;;;;;;;;;;;;;12.28;70.00;98760.28;1087025;54;19973;-81
2023/04/24 03:53:47;;;;;;;;;;;;;;;12.31;70.12;98754.53;1087109;54;19958;-81
2023/04/24 03:54:49;;;;;;;;;;;;;;;12.38;69.53;98762.66;1086696;54;19943;-81
2023/04/24 03:55:53;;;;;;;;;;;;;;;12.41;69.89;98758.78;1086916;54;19939;-82
2023/04/24 03:56:54;;;;;;;;;;;;;;;12.40;70.20;98762.47;1086885;54;19966;-82
2023/04/24 03:57:57;;;;;;;;;;;;;;;12.25;70.91;98768.69;1086927;54;19977;-81
2023/04/24 03:59:08;;;;;;;;;;;;;;;12.22;70.71;98770.94;1087255;54;19946;-79
2023/04/24 04:00:15;;;;;;;;;;;;;;;12.15;71.23;98771.66;1087702;54;19965;-81
2023/04/24 04:01:16;;;;;;;;;;;;;;;12.19;70.78;98776.66;1086631;54;19938;-78
2023/04/24 04:02:20;;;;;;;;;;;;;;;12.21;71.10;98779.97;1087614;46;19957;-77
2023/04/24 04:03:21;;;;;;;;;;;;;;;12.19;71.13;98772.13;1087583;46;19950;-78
2023/04/24 04:04:27;;;;;;;;;;;;;;;12.17;70.52;98776.84;1087464;54;19935;-78
2023/04/24 04:05:28;;;;;;;;;;;;;;;12.24;70.69;98785.78;1087349;54;19943;-78
2023/04/24 04:06:32;;;;;;;;;;;;;;;12.14;70.74;98791.41;1087355;54;19942;-77
2023/04/24 04:07:33;;;;;;;;;;;;;;;12.14;70.92;98791.41;1087782;46;19938;-78
2023/04/24 04:08:37;;;;;;;;;;;;;;;12.07;71.40;98789.69;1087281;54;19946;-80
2023/04/24 04:09:38;;;;;;;;;;;;;;;12.04;71.44;98795.41;1087042;54;19941;-78
2023/04/24 04:10:41;;;;;;;;;;;;;;;12.01;71.76;98804.66;1086592;54;19954;-77
2023/04/24 04:11:43;;;;;;;;;;;;;;;12.02;72.20;98814.34;1086598;39;20226;-79
2023/04/24 04:12:46;;;;;;;;;;;;;;;12.02;71.70;98809.81;1084793;54;19954;-79
2023/04/24 04:13:47;;;;;;;;;;;;;;;11.94;71.58;98812.56;1085037;54;19966;-77
2023/04/24 04:14:51;;;;;;;;;;;;;;;11.93;71.63;98815.41;1084512;47;19953;-78
2023/04/24 04:15:55;;;;;;;;;;;;;;;11.91;72.03;98830.84;1084293;54;19974;-79
2023/04/24 04:16:59;;;;;;;;;;;;;;;11.81;71.50;98829.25;1084182;54;20766;-78
2023/04/24 04:18:00;;;;;;;;;;;;;;;11.86;72.37;98842.09;1085395;54;20363;-79
2023/04/24 04:19:05;;;;;;;;;;;;;;;11.88;73.29;98850.78;1085641;54;19950;-80
2023/04/24 04:20:09;;;;;;;;;;;;;;;11.87;73.97;98857.16;1085685;54;19958;-81
2023/04/24 04:21:13;;;;;;;;;;;;;;;11.92;74.50;98848.56;1085876;54;19942;-78
2023/04/24 04:22:17;;;;;;;;;;;;;;;12.04;73.85;98865.03;1085014;54;20804;-77
2023/04/24 04:23:18;;;;;;;;;;;;;;;11.69;75.53;98862.81;1085103;54;20364;-78
2023/04/24 04:24:23;;;;;;;;;;;;;;;11.57;76.61;98862.44;1085251;54;20000;-77
2023/04/24 04:25:24;;;;;;;;;;;;;;;11.36;76.80;98871.97;1085560;54;19951;-78
2023/04/24 04:26:31;;;;;;;;;;;;;;;11.53;75.99;98866.47;1085580;54;19946;-80
2023/04/24 04:27:33;;;;;;;;;;;;;;;11.44;77.18;98865.72;1085703;54;20026;-78
2023/04/24 04:28:37;;;;;;;;;;;;;;;11.38;77.92;98869.94;1085457;54;20105;-80
2023/04/24 04:29:39;;;;;;;;;;;;;;;11.17;78.19;98875.09;1085642;54;19947;-79
2023/04/24 04:30:43;;;;;;;;;;;;;;;11.22;77.15;98880.75;1085713;54;19950;-81
2023/04/24 04:31:47;;;;;;;;;;;;;;;11.18;77.68;98876.75;1085797;54;19965;-82
2023/04/24 04:32:51;;;;;;;;;;;;;;;11.30;76.89;98878.03;1085842;46;19978;-80
2023/04/24 04:33:52;;;;;;;;;;;;;;;11.07;76.97;98878.84;1085732;54;19953;-80
2023/04/24 04:34:56;;;;;;;;;;;;;;;10.86;76.43;98873.28;1085802;54;19962;-86
2023/04/24 04:35:57;;;;;;;;;;;;;;;11.01;77.44;98871.53;1085610;54;19958;-79
2023/04/24 04:37:02;;;;;;;;;;;;;;;10.81;75.78;98868.47;1085769;54;19954;-82
2023/04/24 04:38:04;;;;;;;;;;;;;;;10.84;76.92;98878.81;1085786;54;19963;-79
2023/04/24 04:39:08;;;;;;;;;;;;;;;10.76;77.05;98882.38;1085748;54;20905;-81
2023/04/24 04:40:11;;;;;;;;;;;;;;;10.71;77.18;98881.22;1085831;46;19950;-80
2023/04/24 04:41:16;;;;;;;;;;;;;;;10.74;77.54;98883.53;1085588;54;19956;-79
2023/04/24 04:42:18;;;;;;;;;;;;;;;10.80;77.23;98890.00;1085651;54;20030;-80
2023/04/24 04:43:22;;;;;;;;;;;;;;;10.85;77.27;98888.50;1085391;47;19947;-80
2023/04/24 04:44:24;;;;;;;;;;;;;;;10.79;76.76;98899.03;1086365;39;20711;-79
2023/04/24 04:45:28;;;;;;;;;;;;;;;10.92;76.78;98893.97;1085554;54;19951;-78
2023/04/24 04:46:32;;;;;;;;;;;;;;;11.01;76.20;98897.41;1085494;54;19965;-78
2023/04/24 04:47:39;;;;;;;;;;;;;;;11.03;76.31;98900.75;1085323;54;19943;-78
2023/04/24 04:48:40;;;;;;;;;;;;;;;10.95;76.40;98900.81;1085022;54;19950;-78
2023/04/24 04:49:46;;;;;;;;;;;;;;;10.83;76.82;98906.53;1084337;54;20773;-79
2023/04/24 04:50:47;;;;;;;;;;;;;;;10.87;76.30;98899.84;1084522;54;19950;-80
2023/04/24 04:51:51;;;;;;;;;;;;;;;10.67;76.22;98895.94;1085084;47;20015;-80
2023/04/24 04:52:52;;;;;;;;;;;;;;;10.81;76.00;98894.34;1084993;54;19962;-78
2023/04/24 04:53:56;;;;;;;;;;;;;;;10.71;76.58;98898.06;1084622;54;20326;-78
2023/04/24 04:54:57;;;;;;;;;;;;;;;10.77;76.98;98899.22;1084701;54;19950;-79
2023/04/24 04:56:02;;;;;;;;;;;;;;;10.84;76.73;98905.53;1085685;54;20066;-82
2023/04/24 04:57:03;;;;;;;;;;;;;;;10.78;76.20;98906.25;1085645;54;19955;-79
2023/04/24 04:58:07;;;;;;;;;;;;;;;10.74;76.14;98912.94;1085825;54;20630;-81
2023/04/24 04:59:12;;;;;;;;;;;;;;;10.68;76.79;98909.09;1085841;54;20006;-80
2023/04/24 05:00:13;;;;;;;;;;;;;;;10.74;76.40;98904.91;1085722;54;20512;-79
2023/04/24 05:01:17;;;;;;;;;;;;;;;10.80;76.61;98914.06;1084956;54;20017;-77
2023/04/24 05:02:19;;;;;;;;;;;;;;;10.91;75.85;98913.69;1084945;54;19950;-78
2023/04/24 05:03:26;;;;;;;;;;;;;;;10.95;75.25;98914.19;1085272;54;19950;-79
2023/04/24 05:04:27;;;;;;;;;;;;;;;10.84;75.64;98918.91;1086234;39;20596;-79
2023/04/24 05:05:32;;;;;;;;;;;;;;;10.86;75.96;98919.56;1085549;54;19981;-79
2023/04/24 05:06:33;;;;;;;;;;;;;;;10.90;76.31;98922.72;1085516;54;20017;-79
2023/04/24 05:07:37;;;;;;;;;;;;;;;10.98;75.90;98919.19;1085774;54;19993;-79
2023/04/24 05:08:42;;;;;;;;;;;;;;;11.04;75.82;98919.31;1085561;54;20039;-79
2023/04/24 05:09:46;;;;;;;;;;;;;;;10.95;76.30;98925.72;1085209;54;19947;-80
2023/04/24 05:10:48;;;;;;;;;;;;;;;11.02;75.98;98931.19;1086495;54;19946;-79
2023/04/24 05:11:52;;;;;;;;;;;;;;;11.10;76.76;98933.00;1087134;54;20011;-80
2023/04/24 05:12:53;;;;;;;;;;;;;;;11.10;75.52;98927.63;1087096;54;20010;-81
2023/04/24 05:13:57;;;;;;;;;;;;;;;11.11;75.67;98929.31;1087146;54;19954;-78
2023/04/24 05:14:59;;;;;;;;;;;;;;;11.12;75.63;98930.97;1087310;46;19966;-79
2023/04/24 05:16:03;;;;;;;;;;;;;;;11.16;75.32;98932.28;1086626;46;19943;-80
2023/04/24 05:17:07;;;;;;;;;;;;;;;11.20;75.40;98941.63;1085981;54;19943;-80
2023/04/24 05:18:08;;;;;;;;;;;;;;;11.19;74.91;98935.44;1085612;54;19972;-79
2023/04/24 05:19:15;;;;;;;;;;;;;;;11.23;74.76;98947.47;1084419;54;19951;-80
2023/04/24 05:20:20;;;;;;;;;;;;;;;11.21;75.00;98946.78;1084944;54;19972;-81
2023/04/24 05:21:24;;;;;;;;;;;;;;;11.23;75.38;98949.31;1084695;54;19962;-78
2023/04/24 05:22:25;;;;;;;;;;;;;;;11.19;75.89;98947.97;1084862;54;19950;-79
2023/04/24 05:23:29;;;;;;;;;;;;;;;11.12;76.44;98949.69;1085430;46;20038;-81
2023/04/24 05:24:31;;;;;;;;;;;;;;;10.99;76.76;98964.47;1085837;54;19974;-82
2023/04/24 05:25:35;;;;;;;;;;;;;;;11.06;76.43;98957.41;1085615;54;19950;-81
2023/04/24 05:26:37;;;;;;;;;;;;;;;11.03;76.94;98959.59;1085534;54;19946;-83
2023/04/24 05:27:41;;;;;;;;;;;;;;;10.77;76.86;98958.84;1085718;54;19950;-84
2023/04/24 05:28:43;;;;;;;;;;;;;;;10.76;76.40;98962.56;1085709;54;19970;-82
2023/04/24 05:29:47;;;;;;;;;;;;;;;10.66;76.66;98958.41;1086230;39;20615;-82
2023/04/24 05:30:50;;;;;;;;;;;;;;;10.71;77.07;98967.56;1085632;54;19953;-80
2023/04/24 05:31:54;;;;;;;;;;;;;;;10.70;76.56;98967.75;1085695;54;19973;-79
2023/04/24 05:33:01;;;;;;;;;;;;;;;10.64;76.73;98971.94;1085855;46;19943;-80
2023/04/24 05:34:02;;;;;;;;;;;;;;;10.59;77.20;98966.25;1085575;54;19943;-81
2023/04/24 05:35:10;;;;;;;;;;;;;;;10.57;76.96;98968.31;1085703;54;19951;-81
2023/04/24 05:36:11;;;;;;;;;;;;;;;10.57;77.34;98977.13;1088227;39;20491;-80
2023/04/24 05:37:15;;;;;;;;;;;;;;;10.53;77.16;98977.66;1085746;54;19946;-79
2023/04/24 05:38:17;;;;;;;;;;;;;;;10.51;77.36;98983.16;1086137;39;20684;-80
2023/04/24 05:39:21;;;;;;;;;;;;;;;10.58;76.83;98980.66;1086494;46;19987;-81
2023/04/24 05:40:26;;;;;;;;;;;;;;;10.59;76.73;98974.28;1085830;54;19950;-80
2023/04/24 05:41:27;;;;;;;;;;;;;;;10.61;76.79;98985.63;1085398;54;19981;-80
2023/04/24 05:42:31;;;;;;;;;;;;;;;10.59;76.74;98983.16;1085447;54;19957;-81
2023/04/24 05:43:32;;;;;;;;;;;;;;;10.56;76.88;98988.00;1085451;54;20002;-82
2023/04/24 05:44:36;;;;;;;;;;;;;;;10.59;77.05;98987.66;1085536;54;19950;-80
2023/04/24 05:45:38;;;;;;;;;;;;;;;10.63;76.54;98986.31;1087131;39;20723;-81